createdAt,value
2023-09-09T07:34:20.610Z,22.76
2023-09-09T07:37:28.961Z,22.76
2023-09-09T07:40:32.299Z,22.36
2023-09-09T07:43:35.857Z,22.49
2023-09-09T07:46:39.312Z,22.74
2023-09-09T07:49:42.454Z,22.87
2023-09-09T07:52:45.521Z,22.98
2023-09-09T07:55:52.612Z,23.12
2023-09-09T07:58:55.271Z,23.30
2023-09-09T08:01:58.677Z,23.67
2023-09-09T08:05:01.754Z,23.73
2023-09-09T08:08:06.665Z,23.70
2023-09-09T08:11:09.738Z,23.77
2023-09-09T08:14:14.706Z,23.69
2023-09-09T08:17:20.399Z,23.83
2023-09-09T08:20:23.430Z,23.89
2023-09-09T08:23:26.501Z,23.86
2023-09-09T08:26:30.131Z,24.03
2023-09-09T08:29:32.982Z,24.17
2023-09-09T08:32:35.953Z,24.27
2023-09-09T08:35:41.356Z,24.39
2023-09-09T08:38:44.335Z,24.55
2023-09-09T08:41:59.438Z,24.78
2023-09-09T08:45:24.056Z,24.95
2023-09-09T08:48:29.067Z,25.07
2023-09-09T08:51:54.998Z,25.10
2023-09-09T08:54:58.953Z,25.23
2023-09-09T08:58:03.358Z,25.39
2023-09-09T09:01:06.786Z,25.45
2023-09-09T09:04:11.543Z,25.62
2023-09-09T09:07:15.759Z,25.82
2023-09-09T09:10:20.289Z,25.84
2023-09-09T09:13:23.160Z,25.81
2023-09-09T09:16:25.764Z,26.04
2023-09-09T09:19:32.016Z,25.99
2023-09-09T09:22:35.483Z,26.16
2023-09-09T09:25:43.501Z,26.21
2023-09-09T09:28:46.309Z,26.41
2023-09-09T09:31:53.871Z,26.61
2023-09-09T09:34:56.472Z,26.84
2023-09-09T09:38:01.342Z,26.86
2023-09-09T09:41:04.916Z,27.00
2023-09-09T09:44:26.508Z,27.09
2023-09-09T09:47:51.493Z,27.25
2023-09-09T09:50:55.244Z,27.33
